»·PEaware :: SWA118 KSMF-KSNA

SWA118 :: KSMF-KSNA

FLIGHT INFORMATION

Flight Status: Arrived
Operator:
Southwest Airlines
More flights by this operator :: More flights under this callsign
Pilot: Brandon G. (13)
Aircraft: BOEING 737-800
(B738)
More flights by this aircraft type
Origin: KSMF Sacramento Intl
United States
Destination: KSNA John Wayne-Orange Co
United States
More flights between these airports :: More routes between these airports
Route: FTHIL2 FRA REBRG OHSEA1
File this flight plan on PilotEdge
Remarks:
Altitude:
(Current/Filed)
37,000ft
Speed:
(Current/Filed)
470kts
Departed: 10-Oct-18 08:10 PM
Arrived: 10-Oct-18 09:20 PM
Distance/Time
Traveled:
351nm/1:09
Distance/Time
To Go:
Arrived

Flight Plot

Page will automatically refresh every two minutes.

Flight plan parsing failed; only flown route is shown


Map Options




Map Legend


Flown Route
Filed Route
Departure Airport
Arrival Airport
Navaid (VOR, NDB)
Fix

Horizontal Profiles

Position Reports

Time Latitude Longitude Heading Altitude Ground
Speed
10-Oct-18 19:59 38.696291 -121.593593 181 27ft 0kts
10-Oct-18 20:00 38.696291 -121.593593 181 27ft 0kts
10-Oct-18 20:01 38.696291 -121.593593 181 27ft 0kts
10-Oct-18 20:02 38.696291 -121.593593 181 27ft 0kts
10-Oct-18 20:03 38.696291 -121.593593 181 27ft 0kts
10-Oct-18 20:04 38.696291 -121.593593 181 27ft 0kts
10-Oct-18 20:05 38.696291 -121.593593 181 27ft 0kts
10-Oct-18 20:06 38.696686 -121.593339 268 27ft 1kts
10-Oct-18 20:07 38.696686 -121.593267 264 27ft 0kts
10-Oct-18 20:08 38.696686 -121.593267 264 27ft 0kts
10-Oct-18 20:09 38.696984 -121.595047 270 27ft 15kts
10-Oct-18 20:10 38.699057 -121.598536 357 27ft 16kts
10-Oct-18 20:11 38.704422 -121.598496 0 27ft 22kts
10-Oct-18 20:12 38.700950 -121.601169 180 27ft 114kts
10-Oct-18 20:13 38.659352 -121.574668 125 2441ft 240kts
10-Oct-18 20:14 38.620372 -121.499074 122 6908ft 269kts
10-Oct-18 20:15 38.585788 -121.431663 121 10361ft 288kts
10-Oct-18 20:16 38.540643 -121.343781 121 13487ft 329kts
10-Oct-18 20:17 38.489078 -121.243827 121 17027ft 350kts
10-Oct-18 20:18 38.434415 -121.138142 120 20270ft 368kts
10-Oct-18 20:19 38.377124 -121.027717 120 23210ft 384kts
10-Oct-18 20:20 38.317089 -120.912360 120 25719ft 403kts
10-Oct-18 20:21 38.253654 -120.790858 120 27868ft 424kts
10-Oct-18 20:22 38.187053 -120.663777 120 29805ft 444kts
10-Oct-18 20:23 38.117309 -120.531265 121 31630ft 462kts
10-Oct-18 20:24 38.045311 -120.395558 123 33811ft 467kts
10-Oct-18 20:25 37.960212 -120.243506 129 36352ft 462kts
10-Oct-18 20:26 37.878946 -120.164438 150 36870ft 478kts
10-Oct-18 20:27 37.763747 -120.079648 150 36835ft 479kts
10-Oct-18 20:28 37.653639 -119.998273 150 36834ft 481kts
10-Oct-18 20:29 37.538354 -119.913172 150 36840ft 481kts
10-Oct-18 20:30 37.423654 -119.828731 150 36845ft 481kts
10-Oct-18 20:31 37.309062 -119.744633 150 36847ft 481kts
10-Oct-18 20:32 37.193882 -119.660393 150 36841ft 481kts
10-Oct-18 20:33 37.072427 -119.597399 176 36848ft 474kts
10-Oct-18 20:34 36.943618 -119.596858 185 36839ft 459kts
10-Oct-18 20:35 36.821111 -119.599482 185 36837ft 462kts
10-Oct-18 20:36 36.693607 -119.601915 185 36838ft 460kts
10-Oct-18 20:37 36.565826 -119.604255 185 36844ft 460kts
10-Oct-18 20:38 36.438151 -119.606542 185 36856ft 461kts
10-Oct-18 20:39 36.310697 -119.608790 185 36858ft 461kts
10-Oct-18 20:40 36.182966 -119.611016 185 36858ft 461kts
10-Oct-18 20:41 36.054880 -119.613286 185 36858ft 461kts
10-Oct-18 20:42 35.928331 -119.623885 194 36864ft 455kts
10-Oct-18 20:43 35.808769 -119.648884 194 36864ft 454kts
10-Oct-18 20:44 35.663054 -119.670218 178 36881ft 465kts
10-Oct-18 20:45 35.560585 -119.628372 159 36875ft 478kts
10-Oct-18 20:46 35.441932 -119.562132 159 36870ft 478kts
10-Oct-18 20:47 35.321126 -119.495370 159 36858ft 477kts
10-Oct-18 20:48 35.200989 -119.429380 159 36859ft 478kts
10-Oct-18 20:49 35.081054 -119.363774 159 36861ft 477kts
10-Oct-18 20:50 34.980586 -119.308844 161 36835ft 453kts
10-Oct-18 20:51 34.871312 -119.249344 162 36850ft 461kts
10-Oct-18 20:52 34.755401 -119.186517 162 36887ft 462kts
10-Oct-18 20:53 34.638491 -119.115132 158 35870ft 492kts
10-Oct-18 20:54 34.523669 -119.041045 157 33668ft 472kts
10-Oct-18 20:55 34.409102 -118.966204 156 29929ft 473kts
10-Oct-18 20:56 34.297032 -118.891543 156 26136ft 450kts
10-Oct-18 20:57 34.189965 -118.829358 165 22870ft 403kts
10-Oct-18 20:58 34.088490 -118.789307 166 20535ft 373kts
10-Oct-18 20:59 33.991639 -118.751887 165 18369ft 366kts
10-Oct-18 21:00 33.897676 -118.715694 165 16276ft 354kts
10-Oct-18 21:01 33.805805 -118.680349 164 14339ft 345kts
10-Oct-18 21:02 33.715987 -118.646534 165 12561ft 336kts
10-Oct-18 21:03 33.630126 -118.612589 147 11477ft 308kts
10-Oct-18 21:04 33.603095 -118.524756 83 10499ft 290kts
10-Oct-18 21:05 33.613513 -118.430535 82 9509ft 285kts
10-Oct-18 21:06 33.623082 -118.345118 83 8601ft 281kts
10-Oct-18 21:07 33.633100 -118.255137 83 7643ft 276kts
10-Oct-18 21:08 33.659741 -118.171736 52 6859ft 274kts
10-Oct-18 21:09 33.705599 -118.100141 51 6059ft 267kts
10-Oct-18 21:10 33.749595 -118.030702 51 5250ft 257kts
10-Oct-18 21:11 33.790741 -117.965632 51 4902ft 232kts
10-Oct-18 21:12 33.828152 -117.906345 51 4598ft 219kts
10-Oct-18 21:13 33.864700 -117.848413 51 3943ft 214kts
10-Oct-18 21:14 33.907093 -117.809218 32 3435ft 183kts
10-Oct-18 21:15 33.910865 -117.754304 111 2997ft 184kts
10-Oct-18 21:16 33.871556 -117.739050 216 3013ft 177kts
10-Oct-18 21:17 33.830181 -117.770032 210 2997ft 177kts
10-Oct-18 21:18 33.787993 -117.797532 209 2441ft 175kts
10-Oct-18 21:19 33.747994 -117.822986 209 1561ft 154kts
10-Oct-18 21:20 33.712265 -117.845652 209 764ft 140kts
10-Oct-18 21:21 33.678473 -117.867040 208 64ft 134kts
10-Oct-18 21:22 33.669537 -117.870494 41 64ft 15kts
10-Oct-18 21:23 33.674339 -117.866350 25 64ft 26kts
10-Oct-18 21:24 33.678705 -117.862735 99 64ft 0kts
10-Oct-18 21:25 33.678705 -117.862735 99 64ft 0kts

Navigation Log

Ident Type
Flight plan parsing failed, navigation log unavailable